Terminal Aerodrome Forecast
Issued by NWS

Current Version | Previous Version | Text Only | Print | Product List | Glossary On
Versions: 1 2 3 4 5 6 7 8 9 10 11 12 13 14 15 16
000
FTUS45 KTFX 031121
TAFHLN
TAF
KHLN 031121Z 0312/0412 VRB05KT P6SM OVC050
     FM031800 VRB05KT P6SM VCSH SCT040 BKN070 PROB30 0321/0403 -TSRA
      BKN035CB
     FM040400 26008KT P6SM SCT050 BKN070=

USA.gov is the U.S. government's official web portal to all federal, state and local government web resources and services.